ADZ weather

Gustavo Rojas Pinilla International Airport
San Andrés, San Andrés, Providencia y Santa Catalina Department, Colombia

Public forecast

Using degrees Celsius for public forecast. Weather courtesy of forecast.io.

Current aviation weather report (METAR) for Gustavo Rojas Pinilla International Airport

Retrieved 2020/08/03 08:00 UTC (56 minutes ago):

SKSP 030800Z 04005KT 010V070 9999 FEW014 BKN200 29/26 A2986

Aviation forecast (TAF) for Gustavo Rojas Pinilla International Airport

Retrieved 2020/08/03 06:48 UTC (2 hours ago):

TAF SKSP 030430Z 0306/0406 08004KT 9999 FEW018 BKN100 PROB40 TEMPO 0309/0312 RA SCT015 OVC080 TX32/0319Z TN26/0310Z